createdAt,value
2019-04-27T00:00:45.001Z,11.25
2019-04-27T00:01:48.305Z,11.25
2019-04-27T00:02:45.039Z,11.25
2019-04-27T00:03:45.063Z,11.25
2019-04-27T00:04:48.707Z,11.25
2019-04-27T00:05:45.100Z,11.25
2019-04-27T00:06:46.550Z,11.25
2019-04-27T00:07:45.138Z,11.25
2019-04-27T00:08:45.161Z,11.25
2019-04-27T00:09:50.191Z,11.25
2019-04-27T00:10:45.198Z,11.25
2019-04-27T00:11:45.538Z,11.25
2019-04-27T00:12:45.248Z,11.25
2019-04-27T00:13:45.279Z,11.25
2019-04-27T00:14:48.439Z,11.25
2019-04-27T00:15:45.299Z,11.25
2019-04-27T00:16:50.523Z,11.25
2019-04-27T00:17:49.189Z,16.88
2019-04-27T00:18:49.432Z,16.88
2019-04-27T00:19:45.381Z,16.88
2019-04-27T00:20:45.408Z,16.88
2019-04-27T00:21:45.419Z,16.88
2019-04-27T00:22:45.439Z,16.88
2019-04-27T00:23:45.616Z,16.88
2019-04-27T00:24:45.474Z,16.88
2019-04-27T00:25:45.495Z,16.88
2019-04-27T00:26:45.658Z,16.88
2019-04-27T00:27:45.535Z,16.88
2019-04-27T00:28:45.568Z,16.88
2019-04-27T00:29:45.582Z,16.88
2019-04-27T00:30:45.781Z,16.88
2019-04-27T00:31:45.643Z,16.88
2019-04-27T00:32:45.635Z,22.50
2019-04-27T00:33:45.655Z,22.50
2019-04-27T00:34:45.674Z,22.50
2019-04-27T00:35:45.696Z,22.50
2019-04-27T00:36:45.734Z,22.50
2019-04-27T00:37:45.736Z,22.50
2019-04-27T00:38:45.755Z,22.50
2019-04-27T00:39:45.772Z,22.50
2019-04-27T00:40:45.793Z,22.50
2019-04-27T00:41:45.820Z,22.50
2019-04-27T00:42:45.835Z,22.50
2019-04-27T00:43:45.854Z,22.50
2019-04-27T00:44:45.987Z,22.50
2019-04-27T00:45:45.894Z,22.50
2019-04-27T00:46:45.915Z,22.50
2019-04-27T00:47:56.552Z,22.50
2019-04-27T00:48:46.029Z,22.50
2019-04-27T00:49:45.975Z,22.50
2019-04-27T00:50:45.996Z,22.50
2019-04-27T00:51:46.016Z,22.50
2019-04-27T00:52:46.037Z,16.88
2019-04-27T00:53:46.055Z,16.88
2019-04-27T00:54:46.082Z,16.88
2019-04-27T00:55:46.096Z,16.88
2019-04-27T00:56:46.117Z,16.88
2019-04-27T00:57:46.143Z,16.88
2019-04-27T00:58:46.160Z,16.88
2019-04-27T00:59:46.175Z,16.88
2019-04-27T01:00:46.197Z,16.88
2019-04-27T01:01:46.218Z,22.50
2019-04-27T01:02:46.239Z,16.88
2019-04-27T01:03:46.308Z,16.88
2019-04-27T01:04:46.274Z,22.50
2019-04-27T01:05:46.297Z,22.50
2019-04-27T01:06:46.338Z,22.50
2019-04-27T01:07:46.339Z,22.50
2019-04-27T01:08:46.357Z,22.50
2019-04-27T01:09:46.381Z,22.50
2019-04-27T01:10:46.409Z,22.50
2019-04-27T01:11:46.418Z,22.50
2019-04-27T01:12:46.451Z,22.50
2019-04-27T01:13:46.560Z,22.50
2019-04-27T01:14:46.483Z,22.50
2019-04-27T01:15:46.497Z,22.50
2019-04-27T01:16:46.524Z,22.50
2019-04-27T01:17:46.551Z,22.50
2019-04-27T01:18:46.569Z,22.50
2019-04-27T01:19:46.582Z,22.50
2019-04-27T01:20:46.611Z,22.50
2019-04-27T01:21:46.621Z,22.50
2019-04-27T01:22:46.647Z,22.50
2019-04-27T01:23:46.662Z,22.50
2019-04-27T01:24:46.681Z,22.50
2019-04-27T01:25:46.702Z,22.50
2019-04-27T01:26:46.723Z,22.50
2019-04-27T01:27:46.745Z,22.50
2019-04-27T01:28:46.762Z,22.50
2019-04-27T01:29:46.783Z,22.50
2019-04-27T01:30:46.803Z,22.50
2019-04-27T01:31:48.566Z,22.50
2019-04-27T01:32:46.853Z,22.50
2019-04-27T01:33:46.862Z,22.50
2019-04-27T01:34:46.887Z,22.50
2019-04-27T01:35:46.904Z,22.50
2019-04-27T01:36:46.943Z,22.50
2019-04-27T01:37:48.677Z,22.50
2019-04-27T01:38:46.968Z,22.50
2019-04-27T01:39:48.533Z,22.50
2019-04-27T01:40:47.058Z,22.50
2019-04-27T01:41:47.027Z,22.50
2019-04-27T01:42:48.405Z,22.50
2019-04-27T01:43:48.930Z,22.50
2019-04-27T01:44:47.093Z,22.50
2019-04-27T01:45:48.721Z,22.50
2019-04-27T01:46:48.682Z,22.50
2019-04-27T01:47:47.152Z,22.50
2019-04-27T01:48:48.906Z,22.50
2019-04-27T01:49:47.214Z,22.50
2019-04-27T01:50:47.240Z,22.50
2019-04-27T01:51:48.813Z,22.50
2019-04-27T01:52:48.663Z,22.50
2019-04-27T01:53:49.148Z,22.50
2019-04-27T01:54:47.321Z,22.50
2019-04-27T01:55:49.170Z,22.50
2019-04-27T01:56:49.143Z,22.50
2019-04-27T01:57:48.762Z,22.50
2019-04-27T01:58:49.256Z,22.50
2019-04-27T01:59:48.925Z,22.50
2019-04-27T02:00:47.416Z,22.50
2019-04-27T02:01:48.951Z,22.50
2019-04-27T02:02:47.457Z,22.50
2019-04-27T02:03:48.884Z,28.13
2019-04-27T02:04:49.308Z,28.13
2019-04-27T02:05:49.212Z,28.13
2019-04-27T02:06:48.706Z,28.13
2019-04-27T02:07:49.081Z,28.13
2019-04-27T02:08:49.221Z,28.13
2019-04-27T02:09:48.653Z,28.13
2019-04-27T02:10:49.495Z,28.13
2019-04-27T02:11:48.942Z,28.13
2019-04-27T02:12:48.708Z,28.13
2019-04-27T02:13:48.809Z,28.13
2019-04-27T02:14:49.064Z,28.13
2019-04-27T02:15:48.681Z,28.13
2019-04-27T02:16:49.271Z,28.13
2019-04-27T02:17:50.627Z,28.13
2019-04-27T02:18:48.874Z,28.13
2019-04-27T02:19:49.388Z,28.13
2019-04-27T02:20:49.203Z,28.13
2019-04-27T02:21:49.407Z,28.13
2019-04-27T02:22:48.550Z,28.13
2019-04-27T02:23:49.365Z,28.13
2019-04-27T02:24:49.289Z,28.13
2019-04-27T02:25:49.602Z,28.13
2019-04-27T02:26:49.622Z,28.13
2019-04-27T02:27:49.098Z,28.13
2019-04-27T02:28:49.455Z,28.13
2019-04-27T02:29:48.795Z,28.13
2019-04-27T02:30:49.796Z,28.13
2019-04-27T02:31:50.085Z,28.13
2019-04-27T02:32:49.830Z,28.13
2019-04-27T02:33:50.028Z,28.13
2019-04-27T02:34:50.446Z,28.13
2019-04-27T02:35:50.513Z,28.13
2019-04-27T02:36:50.176Z,28.13
2019-04-27T02:37:50.169Z,28.13
2019-04-27T02:38:49.273Z,28.13
2019-04-27T02:39:50.024Z,28.13
2019-04-27T02:40:49.570Z,28.13
2019-04-27T02:41:49.877Z,28.13
2019-04-27T02:42:50.373Z,28.13
2019-04-27T02:43:49.718Z,28.13
2019-04-27T02:44:49.411Z,28.13
2019-04-27T02:45:50.305Z,28.13
2019-04-27T02:46:50.251Z,28.13
2019-04-27T02:47:49.032Z,28.13
2019-04-27T02:48:58.823Z,33.75
2019-04-27T02:49:50.735Z,33.75
2019-04-27T02:50:50.001Z,33.75
2019-04-27T02:51:49.597Z,33.75
2019-04-27T02:52:50.074Z,33.75
2019-04-27T02:53:49.786Z,33.75
2019-04-27T02:54:50.535Z,33.75
2019-04-27T02:55:49.968Z,33.75
2019-04-27T02:56:50.044Z,33.75
2019-04-27T02:57:50.026Z,33.75
2019-04-27T02:58:49.601Z,33.75
2019-04-27T02:59:50.324Z,28.13
2019-04-27T03:00:50.143Z,33.75
2019-04-27T03:01:52.964Z,28.13
2019-04-27T03:02:50.983Z,28.13
2019-04-27T03:03:50.179Z,28.13
2019-04-27T03:04:49.874Z,28.13
2019-04-27T03:05:50.295Z,33.75
2019-04-27T03:06:50.077Z,33.75
2019-04-27T03:07:50.330Z,33.75
2019-04-27T03:08:52.881Z,33.75
2019-04-27T03:09:51.059Z,33.75
2019-04-27T03:10:50.269Z,33.75
2019-04-27T03:11:49.984Z,33.75
2019-04-27T03:12:50.013Z,33.75
2019-04-27T03:13:51.777Z,33.75
2019-04-27T03:14:50.590Z,33.75
2019-04-27T03:15:49.651Z,33.75
2019-04-27T03:16:49.651Z,33.75
2019-04-27T03:17:49.509Z,33.75
2019-04-27T03:18:50.799Z,33.75
2019-04-27T03:19:49.463Z,33.75
2019-04-27T03:20:50.342Z,33.75
2019-04-27T03:21:50.191Z,33.75
2019-04-27T03:22:49.935Z,33.75
2019-04-27T03:23:50.157Z,33.75
2019-04-27T03:24:49.879Z,33.75
2019-04-27T03:25:50.557Z,33.75
2019-04-27T03:26:50.121Z,33.75
2019-04-27T03:27:50.264Z,33.75
2019-04-27T03:28:50.247Z,33.75
2019-04-27T03:29:50.020Z,33.75
2019-04-27T03:30:52.081Z,33.75
2019-04-27T03:31:54.188Z,33.75
2019-04-27T03:32:54.966Z,33.75
2019-04-27T03:33:52.813Z,33.75
2019-04-27T03:34:52.394Z,33.75
2019-04-27T03:35:52.497Z,33.75
2019-04-27T03:36:51.542Z,33.75
2019-04-27T03:37:50.127Z,33.75
2019-04-27T03:38:49.929Z,33.75
2019-04-27T03:39:50.077Z,33.75
2019-04-27T03:40:50.650Z,33.75
2019-04-27T03:41:52.437Z,33.75
2019-04-27T03:42:50.212Z,33.75
2019-04-27T03:43:50.401Z,33.75
2019-04-27T03:44:50.225Z,33.75
2019-04-27T03:45:52.250Z,33.75
2019-04-27T03:46:49.761Z,33.75
2019-04-27T03:47:50.431Z,33.75
2019-04-27T03:48:49.899Z,33.75
2019-04-27T03:49:50.747Z,33.75
2019-04-27T03:50:50.684Z,33.75
2019-04-27T03:51:49.998Z,39.38
2019-04-27T03:52:50.103Z,33.75
2019-04-27T03:53:49.888Z,33.75
2019-04-27T03:54:50.446Z,33.75
2019-04-27T03:55:50.238Z,33.75
2019-04-27T03:56:50.784Z,45.00
2019-04-27T03:57:50.013Z,33.75
2019-04-27T03:58:49.911Z,39.38
2019-04-27T03:59:50.657Z,39.38
2019-04-27T04:00:51.967Z,39.38
2019-04-27T04:01:50.631Z,39.38
2019-04-27T04:02:50.376Z,39.38
2019-04-27T04:03:50.411Z,39.38
2019-04-27T04:04:50.708Z,39.38
2019-04-27T04:05:51.967Z,39.38
2019-04-27T04:06:50.102Z,39.38
2019-04-27T04:07:50.560Z,39.38
2019-04-27T04:08:54.752Z,39.38
2019-04-27T04:09:50.470Z,45.00
2019-04-27T04:10:50.172Z,39.38
2019-04-27T04:11:50.205Z,39.38
2019-04-27T04:12:50.273Z,39.38
2019-04-27T04:13:50.238Z,39.38
2019-04-27T04:14:50.258Z,33.75
2019-04-27T04:15:52.219Z,39.38
2019-04-27T04:16:50.300Z,39.38
2019-04-27T04:17:50.327Z,39.38
2019-04-27T04:18:50.396Z,45.00
2019-04-27T04:19:57.481Z,45.00
2019-04-27T04:20:50.665Z,45.00
2019-04-27T04:21:50.542Z,45.00
2019-04-27T04:22:51.436Z,45.00
2019-04-27T04:23:50.452Z,45.00
2019-04-27T04:24:50.682Z,45.00
2019-04-27T04:25:50.499Z,45.00
2019-04-27T04:26:50.612Z,45.00
2019-04-27T04:27:50.890Z,39.38
2019-04-27T04:28:50.567Z,39.38
2019-04-27T04:29:50.587Z,39.38
2019-04-27T04:30:50.608Z,39.38
2019-04-27T04:31:50.680Z,45.00
2019-04-27T04:32:52.056Z,39.38
2019-04-27T04:33:50.671Z,39.38
2019-04-27T04:34:50.695Z,39.38
2019-04-27T04:35:50.718Z,45.00
2019-04-27T04:36:50.748Z,45.00
2019-04-27T04:37:53.002Z,45.00
2019-04-27T04:38:50.835Z,45.00
2019-04-27T04:39:53.610Z,45.00
2019-04-27T04:40:50.828Z,39.38
2019-04-27T04:41:51.184Z,39.38
2019-04-27T04:42:50.873Z,39.38
2019-04-27T04:43:50.911Z,45.00
2019-04-27T04:44:50.912Z,45.00
2019-04-27T04:45:50.939Z,45.00
2019-04-27T04:46:50.963Z,45.00
2019-04-27T04:47:50.987Z,45.00
2019-04-27T04:48:51.009Z,45.00
2019-04-27T04:50:07.075Z,45.00
2019-04-27T04:50:51.047Z,45.00
2019-04-27T04:51:51.069Z,45.00
2019-04-27T04:52:51.094Z,45.00
2019-04-27T04:53:51.863Z,45.00
2019-04-27T04:54:51.137Z,45.00
2019-04-27T04:55:51.158Z,45.00
2019-04-27T04:56:51.217Z,45.00
2019-04-27T04:57:51.204Z,45.00
2019-04-27T04:58:51.242Z,45.00
2019-04-27T04:59:51.568Z,45.00
2019-04-27T05:00:51.269Z,45.00
2019-04-27T05:01:51.319Z,45.00
2019-04-27T05:02:51.335Z,45.00
2019-04-27T05:03:51.341Z,45.00
2019-04-27T05:04:51.362Z,45.00
2019-04-27T05:05:51.390Z,45.00
2019-04-27T05:06:51.404Z,39.38
2019-04-27T05:07:51.429Z,39.38
2019-04-27T05:08:51.457Z,45.00
2019-04-27T05:09:51.472Z,45.00
2019-04-27T05:10:51.494Z,45.00
2019-04-27T05:11:51.518Z,45.00
2019-04-27T05:12:51.557Z,45.00
2019-04-27T05:13:51.558Z,50.63
2019-04-27T05:14:51.916Z,45.00
2019-04-27T05:15:51.604Z,45.00
2019-04-27T05:16:51.630Z,50.63
2019-04-27T05:17:51.651Z,50.63
2019-04-27T05:18:51.671Z,45.00
2019-04-27T05:19:51.698Z,45.00
2019-04-27T05:20:51.717Z,39.38
2019-04-27T05:21:51.738Z,45.00
2019-04-27T05:22:51.762Z,45.00
2019-04-27T05:23:51.826Z,45.00
2019-04-27T05:24:51.807Z,50.63
2019-04-27T05:25:51.826Z,50.63
2019-04-27T05:26:51.852Z,45.00
2019-04-27T05:27:51.873Z,50.63
2019-04-27T05:28:51.896Z,56.25
2019-04-27T05:29:51.919Z,45.00
2019-04-27T05:30:51.940Z,50.63
2019-04-27T05:31:51.967Z,50.63
2019-04-27T05:32:51.986Z,56.25
2019-04-27T05:33:52.007Z,45.00
2019-04-27T05:34:52.031Z,50.63
2019-04-27T05:35:52.057Z,50.63
2019-04-27T05:36:52.631Z,50.63
2019-04-27T05:37:52.100Z,45.00
2019-04-27T05:38:52.117Z,50.63
2019-04-27T05:39:52.147Z,45.00
2019-04-27T05:40:52.169Z,45.00
2019-04-27T05:41:52.191Z,56.25
2019-04-27T05:42:55.403Z,50.63
2019-04-27T05:43:52.233Z,45.00
2019-04-27T05:44:52.266Z,56.25
2019-04-27T05:45:53.153Z,56.25
2019-04-27T05:46:52.299Z,56.25
2019-04-27T05:47:52.322Z,56.25
2019-04-27T05:48:52.345Z,56.25
2019-04-27T05:49:52.529Z,56.25
2019-04-27T05:51:00.693Z,56.25
2019-04-27T05:51:52.410Z,50.63
2019-04-27T05:52:52.436Z,50.63
2019-04-27T05:53:52.458Z,45.00
2019-04-27T05:54:52.707Z,45.00
2019-04-27T05:55:52.599Z,56.25
2019-04-27T05:56:52.527Z,56.25
2019-04-27T05:57:52.554Z,50.63
2019-04-27T05:58:52.582Z,45.00
2019-04-27T05:59:52.595Z,56.25
2019-04-27T06:00:52.616Z,50.63
2019-04-27T06:01:52.637Z,50.63
2019-04-27T06:02:52.660Z,45.00
2019-04-27T06:03:52.683Z,45.00
2019-04-27T06:04:52.709Z,45.00
2019-04-27T06:05:52.728Z,45.00
2019-04-27T06:06:52.754Z,45.00
2019-04-27T06:07:52.777Z,45.00
2019-04-27T06:08:52.801Z,45.00
2019-04-27T06:09:52.818Z,45.00
2019-04-27T06:10:52.842Z,45.00
2019-04-27T06:11:52.863Z,45.00
2019-04-27T06:12:52.895Z,45.00
2019-04-27T06:13:52.907Z,45.00
2019-04-27T06:14:52.928Z,50.63
2019-04-27T06:15:52.952Z,50.63
2019-04-27T06:16:52.975Z,50.63
2019-04-27T06:17:53.002Z,56.25
2019-04-27T06:18:53.023Z,56.25
2019-04-27T06:19:53.044Z,56.25
2019-04-27T06:20:55.737Z,50.63
2019-04-27T06:21:53.089Z,50.63
2019-04-27T06:22:53.112Z,50.63
2019-04-27T06:23:53.140Z,50.63
2019-04-27T06:24:54.595Z,50.63
2019-04-27T06:25:53.184Z,50.63
2019-04-27T06:26:53.202Z,45.00
2019-04-27T06:27:53.222Z,45.00
2019-04-27T06:28:53.249Z,45.00
2019-04-27T06:29:53.269Z,45.00
2019-04-27T06:30:53.318Z,50.63
2019-04-27T06:31:53.315Z,56.25
2019-04-27T06:32:53.342Z,56.25
2019-04-27T06:33:53.358Z,56.25
2019-04-27T06:34:53.381Z,56.25
2019-04-27T06:35:53.405Z,50.63
2019-04-27T06:36:53.427Z,45.00
2019-04-27T06:37:53.451Z,45.00
2019-04-27T06:38:53.472Z,39.38
2019-04-27T06:39:53.494Z,45.00
2019-04-27T06:40:53.519Z,45.00
2019-04-27T06:41:53.540Z,39.38
2019-04-27T06:42:53.563Z,45.00
2019-04-27T06:43:53.582Z,39.38
2019-04-27T06:44:53.606Z,39.38
2019-04-27T06:45:53.629Z,39.38
2019-04-27T06:46:53.650Z,39.38
2019-04-27T06:47:53.676Z,39.38
2019-04-27T06:48:53.696Z,39.38
2019-04-27T06:49:53.718Z,45.00
2019-04-27T06:51:02.601Z,45.00
2019-04-27T06:51:53.781Z,45.00
2019-04-27T06:52:53.786Z,45.00
2019-04-27T06:53:53.808Z,50.63
2019-04-27T06:54:53.833Z,50.63
2019-04-27T06:55:53.854Z,50.63
2019-04-27T06:56:53.882Z,56.25
2019-04-27T06:57:53.901Z,56.25
2019-04-27T06:58:53.927Z,50.63
2019-04-27T06:59:54.809Z,50.63
2019-04-27T07:00:54.137Z,50.63
2019-04-27T07:01:53.989Z,45.00
2019-04-27T07:02:55.419Z,56.25
2019-04-27T07:03:54.033Z,56.25
2019-04-27T07:04:54.130Z,56.25
2019-04-27T07:05:54.083Z,56.25
2019-04-27T07:06:56.221Z,56.25
2019-04-27T07:07:54.127Z,56.25
2019-04-27T07:08:55.263Z,56.25
2019-04-27T07:09:54.246Z,56.25
2019-04-27T07:10:54.194Z,56.25
2019-04-27T07:11:54.225Z,45.00
2019-04-27T07:12:54.242Z,39.38
2019-04-27T07:13:54.261Z,45.00
2019-04-27T07:14:55.098Z,45.00
2019-04-27T07:15:54.310Z,50.63
2019-04-27T07:16:54.329Z,50.63
2019-04-27T07:17:54.353Z,45.00
2019-04-27T07:18:54.375Z,45.00
2019-04-27T07:19:54.395Z,39.38
2019-04-27T07:20:54.421Z,39.38
2019-04-27T07:21:54.443Z,39.38
2019-04-27T07:22:54.464Z,45.00
2019-04-27T07:23:54.491Z,50.63
2019-04-27T07:24:54.511Z,50.63
2019-04-27T07:25:54.532Z,50.63
2019-04-27T07:26:54.558Z,39.38
2019-04-27T07:27:54.582Z,39.38
2019-04-27T07:28:54.601Z,39.38
2019-04-27T07:29:54.624Z,56.25
2019-04-27T07:30:54.654Z,56.25
2019-04-27T07:31:54.670Z,50.63
2019-04-27T07:32:54.731Z,50.63
2019-04-27T07:33:54.714Z,45.00
2019-04-27T07:34:55.344Z,61.88
2019-04-27T07:35:54.758Z,50.63
2019-04-27T07:36:54.783Z,61.88
2019-04-27T07:37:54.808Z,56.25
2019-04-27T07:38:54.825Z,50.63
2019-04-27T07:39:54.848Z,50.63
2019-04-27T07:40:54.870Z,61.88
2019-04-27T07:41:54.896Z,61.88
2019-04-27T07:42:54.918Z,61.88
2019-04-27T07:43:54.942Z,56.25
2019-04-27T07:44:54.961Z,56.25
2019-04-27T07:45:54.983Z,56.25
2019-04-27T07:46:55.006Z,56.25
2019-04-27T07:47:55.031Z,56.25
2019-04-27T07:48:55.078Z,73.13
2019-04-27T07:49:55.106Z,78.75
2019-04-27T07:50:55.098Z,95.63
2019-04-27T07:51:55.118Z,73.13
2019-04-27T07:52:55.144Z,73.13
2019-04-27T07:53:55.163Z,73.13
2019-04-27T07:54:55.189Z,50.63
2019-04-27T07:55:55.229Z,50.63
2019-04-27T07:56:55.233Z,50.63
2019-04-27T07:57:55.264Z,56.25
2019-04-27T07:58:55.300Z,61.88
2019-04-27T07:59:55.302Z,84.38
2019-04-27T08:00:55.323Z,39.38
2019-04-27T08:01:55.348Z,33.75
2019-04-27T08:02:55.405Z,33.75
2019-04-27T08:03:55.391Z,33.75
2019-04-27T08:04:55.419Z,33.75
2019-04-27T08:05:55.439Z,28.13
2019-04-27T08:06:55.463Z,28.13
2019-04-27T08:07:55.484Z,28.13
2019-04-27T08:08:55.533Z,28.13
2019-04-27T08:09:55.535Z,28.13
2019-04-27T08:10:55.550Z,28.13
2019-04-27T08:11:55.577Z,28.13
2019-04-27T08:12:55.597Z,33.75
2019-04-27T08:13:55.619Z,28.13
2019-04-27T08:14:55.643Z,28.13
2019-04-27T08:15:55.669Z,28.13
2019-04-27T08:16:55.688Z,28.13
2019-04-27T08:17:55.711Z,28.13
2019-04-27T08:18:55.743Z,28.13
2019-04-27T08:19:55.757Z,28.13
2019-04-27T08:20:57.045Z,28.13
2019-04-27T08:21:55.916Z,28.13
2019-04-27T08:22:55.824Z,33.75
2019-04-27T08:23:55.845Z,33.75
2019-04-27T08:24:55.866Z,28.13
2019-04-27T08:25:55.893Z,28.13
2019-04-27T08:26:55.918Z,28.13
2019-04-27T08:27:55.935Z,22.50
2019-04-27T08:28:55.958Z,22.50
2019-04-27T08:29:55.980Z,22.50
2019-04-27T08:30:56.010Z,22.50
2019-04-27T08:31:56.024Z,22.50
2019-04-27T08:32:56.049Z,22.50
2019-04-27T08:33:56.069Z,22.50
2019-04-27T08:34:56.092Z,22.50
2019-04-27T08:35:56.113Z,28.13
2019-04-27T08:36:56.142Z,28.13
2019-04-27T08:37:56.159Z,33.75
2019-04-27T08:38:56.181Z,28.13
2019-04-27T08:39:56.203Z,16.88
2019-04-27T08:40:56.225Z,16.88
2019-04-27T08:41:56.248Z,16.88
2019-04-27T08:42:56.270Z,16.88
2019-04-27T08:43:56.319Z,16.88
2019-04-27T08:44:56.314Z,16.88
2019-04-27T08:45:56.338Z,11.25
2019-04-27T08:46:56.416Z,11.25
2019-04-27T08:47:56.384Z,11.25
2019-04-27T08:48:56.406Z,11.25
2019-04-27T08:49:56.424Z,11.25
2019-04-27T08:50:56.455Z,11.25
2019-04-27T08:51:59.931Z,11.25
2019-04-27T08:52:56.519Z,11.25
2019-04-27T08:53:56.514Z,11.25
2019-04-27T08:54:56.542Z,16.88
2019-04-27T08:55:56.554Z,16.88
2019-04-27T08:56:56.582Z,11.25
2019-04-27T08:57:56.625Z,11.25
2019-04-27T08:58:56.652Z,11.25
2019-04-27T08:59:56.656Z,11.25
2019-04-27T09:00:56.670Z,11.25
2019-04-27T09:01:58.599Z,11.25
2019-04-27T09:02:56.727Z,5.63
2019-04-27T09:03:56.839Z,11.25
2019-04-27T09:04:56.761Z,11.25
2019-04-27T09:05:56.774Z,11.25
2019-04-27T09:06:56.994Z,11.25
2019-04-27T09:07:56.895Z,11.25
2019-04-27T09:08:56.844Z,11.25
2019-04-27T09:09:56.870Z,11.25
2019-04-27T09:10:56.885Z,11.25
2019-04-27T09:11:56.909Z,11.25
2019-04-27T09:12:58.745Z,11.25
2019-04-27T09:13:58.842Z,11.25
2019-04-27T09:14:56.975Z,11.25
2019-04-27T09:15:56.995Z,11.25
2019-04-27T09:17:00.002Z,11.25
2019-04-27T09:17:58.744Z,11.25
2019-04-27T09:18:57.060Z,11.25
2019-04-27T09:19:57.081Z,5.63
2019-04-27T09:20:58.775Z,5.63
2019-04-27T09:22:10.067Z,5.63
2019-04-27T09:22:57.226Z,5.63
2019-04-27T09:23:57.169Z,5.63
2019-04-27T09:24:57.192Z,5.63
2019-04-27T09:25:57.212Z,5.63
2019-04-27T09:26:57.261Z,5.63
2019-04-27T09:27:57.255Z,11.25
2019-04-27T09:28:59.501Z,11.25
2019-04-27T09:29:58.836Z,11.25
2019-04-27T09:30:58.752Z,11.25
2019-04-27T09:31:57.342Z,11.25
2019-04-27T09:32:57.367Z,11.25
2019-04-27T09:33:57.387Z,11.25
2019-04-27T09:34:57.410Z,11.25
2019-04-27T09:35:57.443Z,5.63
2019-04-27T09:36:57.601Z,5.63
2019-04-27T09:37:57.479Z,5.63
2019-04-27T09:38:57.509Z,5.63
2019-04-27T09:39:57.522Z,5.63
2019-04-27T09:40:58.077Z,5.63
2019-04-27T09:41:57.559Z,5.63
2019-04-27T09:42:57.583Z,5.63
2019-04-27T09:43:57.628Z,5.63
2019-04-27T09:44:57.627Z,5.63
2019-04-27T09:45:57.645Z,5.63
2019-04-27T09:46:57.671Z,5.63
2019-04-27T09:47:57.691Z,5.63
2019-04-27T09:48:57.714Z,5.63
2019-04-27T09:49:57.734Z,5.63
2019-04-27T09:50:57.760Z,5.63
2019-04-27T09:51:57.777Z,5.63
2019-04-27T09:52:57.798Z,5.63
2019-04-27T09:53:57.824Z,5.63
2019-04-27T09:54:57.841Z,5.63
2019-04-27T09:55:57.862Z,5.63
2019-04-27T09:56:57.884Z,5.63
2019-04-27T09:57:57.905Z,5.63
2019-04-27T09:58:57.927Z,5.63
2019-04-27T09:59:57.947Z,5.63
2019-04-27T10:00:57.972Z,5.63
2019-04-27T10:01:57.993Z,5.63
2019-04-27T10:02:58.014Z,5.63
2019-04-27T10:03:58.036Z,5.63
2019-04-27T10:04:58.056Z,5.63
2019-04-27T10:05:58.080Z,5.63
2019-04-27T10:06:58.100Z,5.63
2019-04-27T10:07:58.124Z,5.63
2019-04-27T10:08:58.142Z,5.63
2019-04-27T10:09:58.167Z,5.63
2019-04-27T10:10:58.186Z,5.63
2019-04-27T10:11:58.206Z,0.00
2019-04-27T10:12:58.232Z,0.00
2019-04-27T10:13:58.247Z,0.00
2019-04-27T10:14:58.278Z,0.00
2019-04-27T10:15:58.290Z,0.00
2019-04-27T10:16:58.313Z,0.00
2019-04-27T10:17:58.332Z,0.00
2019-04-27T10:18:58.359Z,0.00
2019-04-27T10:19:58.376Z,0.00
2019-04-27T10:21:01.886Z,0.00
2019-04-27T10:21:58.423Z,0.00
2019-04-27T10:22:58.459Z,0.00
2019-04-27T10:23:58.465Z,0.00
2019-04-27T10:24:58.509Z,0.00
2019-04-27T10:25:58.540Z,0.00
2019-04-27T10:26:58.590Z,0.00
2019-04-27T10:27:58.547Z,0.00
2019-04-27T10:28:58.568Z,0.00
2019-04-27T10:29:58.664Z,0.00
2019-04-27T10:30:58.610Z,0.00
2019-04-27T10:31:58.804Z,0.00
2019-04-27T10:32:58.668Z,0.00
2019-04-27T10:33:58.675Z,0.00
2019-04-27T10:34:58.699Z,0.00
2019-04-27T10:35:58.721Z,0.00
2019-04-27T10:36:58.742Z,0.00
2019-04-27T10:37:58.760Z,0.00
2019-04-27T10:38:58.782Z,0.00
2019-04-27T10:39:58.803Z,0.00
2019-04-27T10:40:58.825Z,0.00
2019-04-27T10:41:58.843Z,0.00
2019-04-27T10:42:58.866Z,0.00
2019-04-27T10:43:58.927Z,0.00
2019-04-27T10:44:58.907Z,0.00
2019-04-27T10:45:58.938Z,0.00
2019-04-27T10:47:01.742Z,0.00
2019-04-27T10:47:58.982Z,0.00
2019-04-27T10:48:58.993Z,0.00
2019-04-27T10:49:59.014Z,0.00
2019-04-27T10:50:59.044Z,0.00
2019-04-27T10:51:59.057Z,0.00
2019-04-27T10:52:59.446Z,0.00
2019-04-27T10:53:59.246Z,0.00
2019-04-27T10:54:59.130Z,0.00
2019-04-27T10:55:59.142Z,0.00
2019-04-27T10:56:59.161Z,0.00
2019-04-27T10:57:59.302Z,0.00
2019-04-27T10:58:59.350Z,0.00
2019-04-27T10:59:59.224Z,0.00
2019-04-27T11:01:00.219Z,0.00
2019-04-27T11:01:59.276Z,0.00
2019-04-27T11:02:59.287Z,0.00
2019-04-27T11:03:59.318Z,0.00
2019-04-27T11:04:59.330Z,0.00
2019-04-27T11:05:59.371Z,0.00
2019-04-27T11:06:59.371Z,0.00
2019-04-27T11:07:59.395Z,0.00
2019-04-27T11:08:59.422Z,0.00
2019-04-27T11:09:59.436Z,0.00
2019-04-27T11:10:59.455Z,0.00
2019-04-27T11:11:59.479Z,0.00
2019-04-27T11:12:59.504Z,0.00
2019-04-27T11:14:01.088Z,0.00
2019-04-27T11:14:59.542Z,0.00
2019-04-27T11:15:59.560Z,0.00
2019-04-27T11:16:59.582Z,0.00
2019-04-27T11:17:59.602Z,0.00
2019-04-27T11:20:02.611Z,0.00
2019-04-27T11:20:59.666Z,0.00
2019-04-27T11:21:59.691Z,0.00
2019-04-27T11:23:07.104Z,0.00
2019-04-27T11:23:59.734Z,0.00
2019-04-27T11:24:59.751Z,0.00
2019-04-27T11:26:02.446Z,0.00
2019-04-27T11:26:59.789Z,0.00
2019-04-27T11:27:59.968Z,0.00
2019-04-27T11:28:59.834Z,0.00
2019-04-27T11:29:59.851Z,0.00
2019-04-27T11:30:59.873Z,0.00
2019-04-27T11:32:00.910Z,0.00
2019-04-27T11:32:59.916Z,0.00
2019-04-27T11:33:59.940Z,0.00
2019-04-27T11:34:59.960Z,0.00
2019-04-27T11:35:59.978Z,0.00
2019-04-27T11:37:00.007Z,0.00
2019-04-27T11:38:01.041Z,0.00
2019-04-27T11:39:00.040Z,0.00
2019-04-27T11:40:00.063Z,0.00
2019-04-27T11:41:00.081Z,0.00
2019-04-27T11:42:00.104Z,0.00
2019-04-27T11:43:00.123Z,0.00
2019-04-27T11:44:01.163Z,0.00
2019-04-27T11:45:00.168Z,0.00
2019-04-27T11:46:00.188Z,0.00
2019-04-27T11:47:00.211Z,0.00
2019-04-27T11:48:00.228Z,0.00
2019-04-27T11:49:00.248Z,0.00
2019-04-27T11:50:01.281Z,0.00
2019-04-27T11:51:00.295Z,0.00
2019-04-27T11:52:00.315Z,0.00
2019-04-27T11:53:00.330Z,0.00
2019-04-27T11:54:00.351Z,0.00
2019-04-27T11:55:00.377Z,0.00
2019-04-27T11:56:01.411Z,0.00
2019-04-27T11:57:00.417Z,0.00
2019-04-27T11:58:00.435Z,0.00
2019-04-27T11:59:00.466Z,0.00
2019-04-27T12:00:00.545Z,0.00
2019-04-27T12:01:00.517Z,0.00
2019-04-27T12:02:01.530Z,0.00
2019-04-27T12:03:00.549Z,0.00
2019-04-27T12:04:00.560Z,0.00
2019-04-27T12:05:00.580Z,0.00
2019-04-27T12:06:00.599Z,0.00
2019-04-27T12:07:00.627Z,0.00
2019-04-27T12:08:01.656Z,0.00
2019-04-27T12:09:00.665Z,0.00
2019-04-27T12:10:00.687Z,0.00
2019-04-27T12:11:00.708Z,0.00
2019-04-27T12:12:12.636Z,0.00
2019-04-27T12:13:00.744Z,0.00
2019-04-27T12:14:01.777Z,0.00
2019-04-27T12:15:00.788Z,0.00
2019-04-27T12:16:00.810Z,0.00
2019-04-27T12:17:00.826Z,0.00
2019-04-27T12:18:00.853Z,0.00
2019-04-27T12:19:00.872Z,0.00
2019-04-27T12:20:01.934Z,0.00
2019-04-27T12:21:00.953Z,0.00
2019-04-27T12:22:00.932Z,0.00
2019-04-27T12:23:00.952Z,0.00
2019-04-27T12:24:00.973Z,0.00
2019-04-27T12:25:00.997Z,0.00
2019-04-27T12:26:02.025Z,0.00
2019-04-27T12:27:01.041Z,0.00
2019-04-27T12:28:01.056Z,0.00
2019-04-27T12:29:01.078Z,0.00
2019-04-27T12:30:02.732Z,0.00
2019-04-27T12:31:01.118Z,0.00
2019-04-27T12:32:02.148Z,0.00
2019-04-27T12:33:01.167Z,0.00
2019-04-27T12:34:01.181Z,0.00
2019-04-27T12:35:01.201Z,0.00
2019-04-27T12:36:01.223Z,0.00
2019-04-27T12:37:01.243Z,0.00
2019-04-27T12:38:02.275Z,0.00
2019-04-27T12:39:01.283Z,0.00
2019-04-27T12:40:01.303Z,0.00
2019-04-27T12:41:01.348Z,0.00
2019-04-27T12:42:01.350Z,0.00
2019-04-27T12:43:01.365Z,0.00
2019-04-27T12:44:02.399Z,0.00
2019-04-27T12:45:01.409Z,0.00
2019-04-27T12:46:01.432Z,0.00
2019-04-27T12:47:02.747Z,0.00
2019-04-27T12:48:01.466Z,0.00
2019-04-27T12:49:01.490Z,0.00
2019-04-27T12:50:02.533Z,0.00
2019-04-27T12:51:01.533Z,0.00
2019-04-27T12:52:01.554Z,0.00
2019-04-27T12:53:01.587Z,0.00
2019-04-27T12:54:01.593Z,0.00
2019-04-27T12:55:01.622Z,0.00
2019-04-27T12:56:02.643Z,0.00
2019-04-27T12:57:01.657Z,0.00
2019-04-27T12:58:01.671Z,0.00
2019-04-27T12:59:01.694Z,0.00
2019-04-27T13:00:01.717Z,0.00
2019-04-27T13:01:01.743Z,0.00